createdAt,value
2022-10-17T00:00:12.650Z,100962.22
2022-10-17T00:00:59.510Z,100960.50
2022-10-17T00:01:46.562Z,100961.78
2022-10-17T00:02:33.510Z,100953.00
2022-10-17T00:03:20.312Z,100959.41
2022-10-17T00:04:07.246Z,100965.94
2022-10-17T00:04:54.162Z,100964.94
2022-10-17T00:05:45.461Z,100965.50
2022-10-17T00:06:32.402Z,100966.91
2022-10-17T00:07:19.201Z,100960.25
2022-10-17T00:08:06.191Z,100963.38
2022-10-17T00:08:53.011Z,100959.66
2022-10-17T00:09:43.302Z,100955.69
2022-10-17T00:10:30.253Z,100964.81
2022-10-17T00:11:23.020Z,100962.25
2022-10-17T00:12:09.990Z,100960.69
2022-10-17T00:12:56.971Z,100965.78
2022-10-17T00:13:44.051Z,100971.44
2022-10-17T00:14:30.941Z,100966.19
2022-10-17T00:15:19.851Z,100967.50
2022-10-17T00:16:07.310Z,100966.47
2022-10-17T00:16:54.201Z,100968.91
2022-10-17T00:17:42.236Z,100965.03
2022-10-17T00:18:29.072Z,100964.19
2022-10-17T00:19:16.029Z,100970.44
2022-10-17T00:20:02.952Z,100969.59
2022-10-17T00:20:49.900Z,100966.19
2022-10-17T00:21:36.882Z,100965.63
2022-10-17T00:22:23.885Z,100966.47
2022-10-17T00:23:10.982Z,100966.47
2022-10-17T00:23:57.861Z,100976.97
2022-10-17T00:24:44.748Z,100968.34
2022-10-17T00:25:31.641Z,100970.19
2022-10-17T00:26:19.064Z,100976.13
2022-10-17T00:27:06.001Z,100975.13
2022-10-17T00:27:52.841Z,100971.59
2022-10-17T00:28:39.787Z,100974.28
2022-10-17T00:29:26.790Z,100972.03
2022-10-17T00:30:15.760Z,100971.88
2022-10-17T00:31:05.101Z,100969.50
2022-10-17T00:31:56.284Z,100979.25
2022-10-17T00:32:43.331Z,100972.31
2022-10-17T00:33:31.330Z,100981.09
2022-10-17T00:34:18.171Z,100973.03
2022-10-17T00:35:06.689Z,100977.88
2022-10-17T00:36:13.800Z,100972.78
2022-10-17T00:37:00.692Z,100979.87
2022-10-17T00:37:48.091Z,100980.03
2022-10-17T00:38:35.461Z,100979.31
2022-10-17T00:39:22.330Z,100981.69
2022-10-17T00:40:10.281Z,100988.94
2022-10-17T00:40:57.478Z,100978.31
2022-10-17T00:41:44.402Z,100979.19
2022-10-17T00:42:31.463Z,100982.72
2022-10-17T00:43:18.843Z,100985.84
2022-10-17T00:44:31.380Z,100983.16
2022-10-17T00:45:28.651Z,100984.12
2022-10-17T00:46:15.470Z,100981.91
2022-10-17T00:47:05.192Z,100980.91
2022-10-17T00:47:59.122Z,100981.75
2022-10-17T00:48:46.630Z,100983.44
2022-10-17T00:49:35.401Z,100978.47
2022-10-17T00:50:22.483Z,100969.69
2022-10-17T00:51:09.754Z,100978.63
2022-10-17T00:51:59.453Z,100983.88
2022-10-17T00:52:47.481Z,100974.31
2022-10-17T00:53:34.662Z,100975.47
2022-10-17T00:54:24.451Z,100979.47
2022-10-17T00:55:18.932Z,100975.91
2022-10-17T00:56:06.231Z,100980.84
2022-10-17T00:56:53.342Z,100978.16
2022-10-17T00:57:40.451Z,100982.16
2022-10-17T00:58:27.433Z,100980.16
2022-10-17T00:59:16.905Z,100980.16
2022-10-17T01:00:08.592Z,100976.47
2022-10-17T01:00:55.413Z,100973.78
2022-10-17T01:01:43.857Z,100974.78
2022-10-17T01:02:31.163Z,100976.47
2022-10-17T01:03:18.253Z,100970.38
2022-10-17T01:04:05.303Z,100979.44
2022-10-17T01:04:55.291Z,100973.16
2022-10-17T01:05:42.752Z,100971.63
2022-10-17T01:06:29.710Z,100972.91
2022-10-17T01:07:17.007Z,100976.31
2022-10-17T01:08:04.379Z,100969.94
2022-10-17T01:08:51.331Z,100973.63
2022-10-17T01:09:39.411Z,100968.41
2022-10-17T01:10:33.724Z,100967.53
2022-10-17T01:11:22.660Z,100968.22
2022-10-17T01:12:20.988Z,100967.69
2022-10-17T01:13:13.820Z,100970.38
2022-10-17T01:14:12.331Z,100970.09
2022-10-17T01:15:12.912Z,100959.44
2022-10-17T01:16:02.641Z,100954.16
2022-10-17T01:17:38.802Z,100956.56
2022-10-17T01:18:52.920Z,100957.31
2022-10-17T01:20:13.973Z,100957.44
2022-10-17T01:21:26.803Z,100962.69
2022-10-17T01:22:26.763Z,100955.31
2022-10-17T01:23:38.691Z,100954.91
2022-10-17T01:24:34.431Z,100948.66
2022-10-17T01:25:32.362Z,100947.53
2022-10-17T01:26:40.801Z,100951.53
2022-10-17T01:27:30.630Z,100953.22
2022-10-17T01:28:32.312Z,100945.97
2022-10-17T01:29:37.649Z,100946.41
2022-10-17T01:30:40.961Z,100940.19
2022-10-17T01:31:49.501Z,100936.06
2022-10-17T01:33:06.166Z,100940.03
2022-10-17T01:34:13.731Z,100938.47
2022-10-17T01:35:09.450Z,100935.50
2022-10-17T01:36:05.814Z,100937.81
2022-10-17T01:37:06.591Z,100933.84
2022-10-17T01:38:03.892Z,100936.53
2022-10-17T01:38:55.721Z,100936.69
2022-10-17T01:39:56.421Z,100933.41
2022-10-17T01:41:07.113Z,100934.56
2022-10-17T01:42:06.571Z,100929.88
2022-10-17T01:43:17.836Z,100930.59
2022-10-17T01:44:15.351Z,100928.47
2022-10-17T01:45:24.233Z,100931.44
2022-10-17T01:46:27.011Z,100931.75
2022-10-17T01:47:17.056Z,100932.44
2022-10-17T01:48:08.773Z,100930.12
2022-10-17T01:48:56.412Z,100930.12
2022-10-17T01:49:45.771Z,100928.16
2022-10-17T01:50:36.601Z,100928.16
2022-10-17T01:51:29.380Z,100929.03
2022-10-17T01:52:21.182Z,100929.28
2022-10-17T01:53:30.701Z,100928.47
2022-10-17T01:54:33.035Z,100927.75
2022-10-17T01:55:30.070Z,100928.47
2022-10-17T01:56:18.871Z,100942.03
2022-10-17T01:57:08.801Z,100937.34
2022-10-17T01:58:00.580Z,100938.34
2022-10-17T01:58:55.552Z,100940.03
2022-10-17T01:59:44.942Z,100941.16
2022-10-17T02:00:32.750Z,100939.78
2022-10-17T02:01:20.413Z,100945.87
2022-10-17T02:02:08.170Z,100950.13
2022-10-17T02:03:02.104Z,100950.97
2022-10-17T02:03:50.269Z,100944.72
2022-10-17T02:04:37.632Z,100943.72
2022-10-17T02:05:28.411Z,100945.13
2022-10-17T02:06:15.240Z,100946.41
2022-10-17T02:07:13.341Z,100947.81
2022-10-17T02:08:00.211Z,100949.13
2022-10-17T02:08:49.700Z,100949.41
2022-10-17T02:09:36.641Z,100945.72
2022-10-17T02:10:35.571Z,100945.87
2022-10-17T02:11:25.484Z,100951.09
2022-10-17T02:12:16.601Z,100945.19
2022-10-17T02:13:28.033Z,100943.19
2022-10-17T02:14:27.400Z,100947.72
2022-10-17T02:15:29.321Z,100947.00
2022-10-17T02:16:32.939Z,100945.19
2022-10-17T02:17:30.876Z,100948.03
2022-10-17T02:18:47.071Z,100945.91
2022-10-17T02:19:59.180Z,100945.59
2022-10-17T02:21:32.671Z,100945.31
2022-10-17T02:22:30.711Z,100940.50
2022-10-17T02:24:03.860Z,100944.47
2022-10-17T02:24:59.300Z,100950.41
2022-10-17T02:26:08.391Z,100943.47
2022-10-17T02:27:01.151Z,100946.31
2022-10-17T02:28:19.469Z,100950.00
2022-10-17T02:29:10.571Z,100946.16
2022-10-17T02:30:01.162Z,100954.56
2022-10-17T02:30:55.071Z,100948.47
2022-10-17T02:31:48.823Z,100957.09
2022-10-17T02:32:40.910Z,100947.47
2022-10-17T02:33:43.681Z,100952.97
2022-10-17T02:34:35.212Z,100957.84
2022-10-17T02:35:23.010Z,100960.53
2022-10-17T02:36:13.782Z,100955.59
2022-10-17T02:37:02.747Z,100960.97
2022-10-17T02:37:51.432Z,100964.66
2022-10-17T02:38:38.992Z,100960.09
2022-10-17T02:39:27.799Z,100963.81
2022-10-17T02:40:15.801Z,100961.25
2022-10-17T02:41:03.552Z,100962.41
2022-10-17T02:41:51.482Z,100965.09
2022-10-17T02:42:39.030Z,100961.69
2022-10-17T02:43:26.032Z,100963.56
2022-10-17T02:44:12.820Z,100961.81
2022-10-17T02:45:01.321Z,100960.97
2022-10-17T02:45:48.410Z,100962.81
2022-10-17T02:46:35.810Z,100968.50
2022-10-17T02:47:26.971Z,100972.87
2022-10-17T02:48:28.371Z,100968.63
2022-10-17T02:49:22.004Z,100969.91
2022-10-17T02:50:09.030Z,100972.78
2022-10-17T02:51:05.662Z,100973.50
2022-10-17T02:52:10.831Z,100978.72
2022-10-17T02:53:06.552Z,100972.47
2022-10-17T02:54:11.552Z,100976.00
2022-10-17T02:55:04.198Z,100969.91
2022-10-17T02:55:55.401Z,100978.44
2022-10-17T02:56:46.730Z,100973.88
2022-10-17T02:57:45.243Z,100975.03
2022-10-17T02:58:34.261Z,100970.34
2022-10-17T02:59:22.624Z,100977.41
2022-10-17T03:00:12.793Z,100976.72
2022-10-17T03:01:00.685Z,100974.31
2022-10-17T03:01:48.551Z,100981.41
2022-10-17T03:02:50.070Z,100980.25
2022-10-17T03:03:36.810Z,100980.56
2022-10-17T03:04:23.555Z,100984.25
2022-10-17T03:05:12.420Z,100986.25
2022-10-17T03:05:59.202Z,100989.09
2022-10-17T03:06:47.681Z,100980.56
2022-10-17T03:07:34.452Z,100981.84
2022-10-17T03:08:22.201Z,100984.53
2022-10-17T03:09:09.289Z,100982.84
2022-10-17T03:09:55.996Z,100993.19
2022-10-17T03:10:42.722Z,100996.00
2022-10-17T03:11:29.562Z,100984.53
2022-10-17T03:12:16.401Z,100991.91
2022-10-17T03:13:03.207Z,100987.53
2022-10-17T03:13:49.941Z,100994.34
2022-10-17T03:14:36.722Z,100988.06
2022-10-17T03:15:23.531Z,100993.31
2022-10-17T03:16:10.240Z,100990.75
2022-10-17T03:16:57.031Z,100997.56
2022-10-17T03:18:35.622Z,100993.72
2022-10-17T03:19:22.391Z,100999.09
2022-10-17T03:20:09.481Z,100989.22
2022-10-17T03:20:56.271Z,100995.88
2022-10-17T03:21:43.030Z,100993.47
2022-10-17T03:22:30.137Z,100999.84
2022-10-17T03:23:17.292Z,100995.16
2022-10-17T03:24:04.983Z,100990.75
2022-10-17T03:24:51.751Z,100992.87
2022-10-17T03:25:38.531Z,100993.44
2022-10-17T03:26:25.392Z,100992.59
2022-10-17T03:27:12.302Z,100985.09
2022-10-17T03:28:02.181Z,100996.84
2022-10-17T03:28:51.932Z,100989.66
2022-10-17T03:29:41.082Z,100992.03
2022-10-17T03:30:28.455Z,100995.88
2022-10-17T03:31:16.961Z,100989.47
2022-10-17T03:32:03.900Z,100993.88
2022-10-17T03:32:50.652Z,100997.72
2022-10-17T03:33:37.941Z,100998.31
2022-10-17T03:34:24.774Z,100997.72
2022-10-17T03:35:14.818Z,100998.84
2022-10-17T03:36:06.253Z,100995.44
2022-10-17T03:36:53.135Z,100995.88
2022-10-17T03:37:39.983Z,101001.72
2022-10-17T03:38:26.731Z,100997.88
2022-10-17T03:39:13.524Z,100997.44
2022-10-17T03:40:00.303Z,100996.47
2022-10-17T03:40:55.300Z,101003.00
2022-10-17T03:41:42.254Z,100999.41
2022-10-17T03:42:29.062Z,101003.84
2022-10-17T03:43:15.842Z,101001.72
2022-10-17T03:44:02.942Z,101002.69
2022-10-17T03:44:49.700Z,101004.81
2022-10-17T03:45:37.192Z,101001.28
2022-10-17T03:46:23.931Z,101008.94
2022-10-17T03:47:13.407Z,101002.56
2022-10-17T03:48:01.021Z,101008.09
2022-10-17T03:48:47.796Z,101002.72
2022-10-17T03:49:34.553Z,101007.81
2022-10-17T03:50:21.381Z,101010.81
2022-10-17T03:51:09.592Z,101004.81
2022-10-17T03:51:56.371Z,101004.97
2022-10-17T03:52:47.103Z,101010.81
2022-10-17T03:53:34.613Z,101016.03
2022-10-17T03:54:21.391Z,101013.50
2022-10-17T03:55:08.371Z,101019.72
2022-10-17T03:55:55.412Z,101017.03
2022-10-17T03:56:43.622Z,101016.87
2022-10-17T03:57:30.754Z,101019.44
2022-10-17T03:58:17.885Z,101017.59
2022-10-17T03:59:04.620Z,101014.91
2022-10-17T03:59:52.625Z,101019.44
2022-10-17T04:00:39.401Z,101015.19
2022-10-17T04:01:26.287Z,101018.16
2022-10-17T04:02:13.132Z,101020.16
2022-10-17T04:02:59.965Z,101023.25
2022-10-17T04:03:51.273Z,101019.00
2022-10-17T04:04:37.980Z,101024.56
2022-10-17T04:05:24.781Z,101017.47
2022-10-17T04:06:13.033Z,101018.59
2022-10-17T04:06:59.772Z,101023.56
2022-10-17T04:07:46.642Z,101016.31
2022-10-17T04:08:33.982Z,101027.25
2022-10-17T04:09:20.781Z,101020.03
2022-10-17T04:10:07.949Z,101028.94
2022-10-17T04:11:02.263Z,101028.81
2022-10-17T04:11:49.071Z,101031.34
2022-10-17T04:12:35.815Z,101019.44
2022-10-17T04:13:22.691Z,101033.63
2022-10-17T04:14:10.192Z,101026.56
2022-10-17T04:14:57.470Z,101028.22
2022-10-17T04:15:57.902Z,101029.94
2022-10-17T04:16:44.831Z,101030.34
2022-10-17T04:17:35.886Z,101042.00
2022-10-17T04:18:25.441Z,101028.53
2022-10-17T04:19:13.432Z,101035.34
2022-10-17T04:20:00.330Z,101031.94
2022-10-17T04:20:47.672Z,101034.75
2022-10-17T04:21:34.432Z,101032.19
2022-10-17T04:22:21.192Z,101034.19
2022-10-17T04:23:07.972Z,101030.50
2022-10-17T04:23:56.201Z,101026.25
2022-10-17T04:24:43.033Z,101032.50
2022-10-17T04:25:33.384Z,101035.91
2022-10-17T04:26:22.810Z,101040.28
2022-10-17T04:27:09.581Z,101028.22
2022-10-17T04:27:56.301Z,101025.97
2022-10-17T04:28:43.092Z,101022.44
2022-10-17T04:29:29.891Z,101038.59
2022-10-17T04:30:16.920Z,101032.34
2022-10-17T04:31:08.552Z,101028.66
2022-10-17T04:31:56.202Z,101025.28
2022-10-17T04:32:43.100Z,101035.31
2022-10-17T04:33:31.729Z,101023.72
2022-10-17T04:34:18.712Z,101030.91
2022-10-17T04:35:05.960Z,101033.59
2022-10-17T04:36:01.070Z,101038.88
2022-10-17T04:36:47.831Z,101033.78
2022-10-17T04:37:34.583Z,101037.00
2022-10-17T04:38:24.888Z,101037.88
2022-10-17T04:40:06.623Z,101038.88
2022-10-17T04:40:53.580Z,101039.56
2022-10-17T04:41:40.477Z,101040.41
2022-10-17T04:42:29.585Z,101040.00
2022-10-17T04:43:16.582Z,101036.44
2022-10-17T04:44:03.943Z,101037.16
2022-10-17T04:44:50.681Z,101040.41
2022-10-17T04:45:37.431Z,101044.25
2022-10-17T04:46:24.517Z,101042.69
2022-10-17T04:47:11.311Z,101041.00
2022-10-17T04:47:58.084Z,101038.72
2022-10-17T04:48:45.062Z,101043.53
2022-10-17T04:49:31.848Z,101038.44
2022-10-17T04:50:18.690Z,101039.16
2022-10-17T04:51:12.792Z,101047.22
2022-10-17T04:51:59.611Z,101037.03
2022-10-17T04:52:46.303Z,101040.69
2022-10-17T04:53:34.481Z,101040.31
2022-10-17T04:54:21.212Z,101043.53
2022-10-17T04:55:08.241Z,101035.62
2022-10-17T04:55:55.073Z,101036.47
2022-10-17T04:56:41.872Z,101042.69
2022-10-17T04:57:28.733Z,101041.97
2022-10-17T04:58:16.172Z,101044.53
2022-10-17T04:59:02.992Z,101031.94
2022-10-17T04:59:49.826Z,101038.88
2022-10-17T05:00:36.657Z,101041.56
2022-10-17T05:01:24.153Z,101037.31
2022-10-17T05:02:10.991Z,101036.59
2022-10-17T05:02:57.803Z,101040.44
2022-10-17T05:03:45.361Z,101043.81
2022-10-17T05:04:32.189Z,101043.28
2022-10-17T05:05:18.983Z,101042.12
2022-10-17T05:06:11.759Z,101043.81
2022-10-17T05:06:58.557Z,101036.44
2022-10-17T05:07:45.422Z,101039.84
2022-10-17T05:08:32.693Z,101045.53
2022-10-17T05:09:19.481Z,101042.00
2022-10-17T05:10:06.741Z,101048.34
2022-10-17T05:10:53.531Z,101044.09
2022-10-17T05:11:40.310Z,101051.19
2022-10-17T05:12:27.397Z,101049.63
2022-10-17T05:13:14.711Z,101051.47
2022-10-17T05:14:02.505Z,101055.31
2022-10-17T05:14:49.279Z,101057.84
2022-10-17T05:15:36.943Z,101051.47
2022-10-17T05:16:24.937Z,101058.53
2022-10-17T05:17:11.872Z,101057.56
2022-10-17T05:17:59.022Z,101061.94
2022-10-17T05:18:52.693Z,101064.63
2022-10-17T05:19:40.091Z,101061.25
2022-10-17T05:20:27.328Z,101064.50
2022-10-17T05:21:14.111Z,101065.09
2022-10-17T05:22:00.912Z,101066.78
2022-10-17T05:22:47.702Z,101068.91
2022-10-17T05:23:34.591Z,101065.34
2022-10-17T05:24:21.420Z,101065.34
2022-10-17T05:25:08.610Z,101067.91
2022-10-17T05:25:56.011Z,101070.72
2022-10-17T05:26:42.832Z,101069.62
2022-10-17T05:27:29.622Z,101069.19
2022-10-17T05:28:16.483Z,101072.44
2022-10-17T05:29:04.125Z,101069.75
2022-10-17T05:29:51.004Z,101068.91
2022-10-17T05:30:37.815Z,101068.22
2022-10-17T05:31:24.571Z,101066.94
2022-10-17T05:32:11.560Z,101076.56
2022-10-17T05:32:58.370Z,101077.28
2022-10-17T05:33:45.175Z,101068.91
2022-10-17T05:34:32.153Z,101075.13
2022-10-17T05:35:18.885Z,101077.97
2022-10-17T05:36:06.442Z,101076.12
2022-10-17T05:36:53.221Z,101074.72
2022-10-17T05:37:40.070Z,101073.41
2022-10-17T05:38:27.881Z,101076.28
2022-10-17T05:39:15.392Z,101084.50
2022-10-17T05:40:02.404Z,101084.50
2022-10-17T05:40:49.321Z,101083.06
2022-10-17T05:41:36.191Z,101087.19
2022-10-17T05:42:23.062Z,101088.19
2022-10-17T05:43:09.943Z,101085.06
2022-10-17T05:43:57.819Z,101087.31
2022-10-17T05:44:46.292Z,101089.44
2022-10-17T05:45:33.170Z,101084.78
2022-10-17T05:46:20.061Z,101092.00
2022-10-17T05:47:06.774Z,101088.31
2022-10-17T05:47:53.510Z,101095.38
2022-10-17T05:48:40.301Z,101089.16
2022-10-17T05:49:33.229Z,101098.06
2022-10-17T05:50:30.652Z,101092.28
2022-10-17T05:51:17.372Z,101096.09
2022-10-17T05:52:04.184Z,101099.91
2022-10-17T05:52:55.062Z,101101.06
2022-10-17T05:53:42.697Z,101100.63
2022-10-17T05:54:29.552Z,101102.63
2022-10-17T05:55:16.321Z,101100.19
2022-10-17T05:56:06.011Z,101105.59
2022-10-17T05:56:53.731Z,101105.44
2022-10-17T05:57:40.644Z,101099.03
2022-10-17T05:59:35.121Z,101100.91
2022-10-17T06:00:22.507Z,101108.41
2022-10-17T06:01:12.772Z,101104.25
2022-10-17T06:02:00.312Z,101111.94
2022-10-17T06:02:47.234Z,101104.97
2022-10-17T06:03:34.414Z,101117.03
2022-10-17T06:04:21.243Z,101113.50
2022-10-17T06:05:08.438Z,101118.19
2022-10-17T06:05:55.311Z,101114.63
2022-10-17T06:06:42.121Z,101110.34
2022-10-17T06:07:28.831Z,101119.84
2022-10-17T06:08:15.561Z,101119.00
2022-10-17T06:09:02.351Z,101123.84
2022-10-17T06:09:49.115Z,101124.53
2022-10-17T06:10:35.892Z,101123.53
2022-10-17T06:11:22.695Z,101127.63
2022-10-17T06:12:09.524Z,101125.41
2022-10-17T06:12:57.757Z,101123.09
2022-10-17T06:13:44.630Z,101125.66
2022-10-17T06:14:31.348Z,101127.50
2022-10-17T06:15:18.330Z,101130.22
2022-10-17T06:16:05.890Z,101128.75
2022-10-17T06:16:52.634Z,101130.47
2022-10-17T06:17:42.439Z,101132.16
2022-10-17T06:18:29.381Z,101132.13
2022-10-17T06:19:16.224Z,101135.53
2022-10-17T06:20:02.981Z,101135.78
2022-10-17T06:20:50.061Z,101135.34
2022-10-17T06:21:38.802Z,101140.16
2022-10-17T06:22:25.620Z,101131.22
2022-10-17T06:23:12.481Z,101134.75
2022-10-17T06:23:59.201Z,101132.75
2022-10-17T06:24:46.400Z,101142.53
2022-10-17T06:25:33.942Z,101141.25
2022-10-17T06:26:20.903Z,101134.00
2022-10-17T06:27:11.039Z,101145.47
2022-10-17T06:27:59.472Z,101137.94
2022-10-17T06:28:46.286Z,101145.34
2022-10-17T06:29:33.063Z,101146.84
2022-10-17T06:30:19.927Z,101142.28
2022-10-17T06:31:12.412Z,101153.78
2022-10-17T06:31:59.121Z,101149.81
2022-10-17T06:32:45.921Z,101149.47
2022-10-17T06:33:32.781Z,101151.75
2022-10-17T06:34:19.960Z,101149.06
2022-10-17T06:35:07.276Z,101154.16
2022-10-17T06:35:56.143Z,101155.41
2022-10-17T06:36:43.207Z,101157.31
2022-10-17T06:37:36.375Z,101159.19
2022-10-17T06:38:24.241Z,101156.34
2022-10-17T06:39:11.061Z,101155.87
2022-10-17T06:39:58.030Z,101157.12
2022-10-17T06:40:45.006Z,101162.22
2022-10-17T06:41:31.841Z,101160.22
2022-10-17T06:42:18.899Z,101161.59
2022-10-17T06:43:06.171Z,101165.72
2022-10-17T06:43:53.062Z,101167.09
2022-10-17T06:44:41.261Z,101157.50
2022-10-17T06:45:28.121Z,101158.75
2022-10-17T06:46:17.252Z,101156.75
2022-10-17T06:47:04.121Z,101164.25
2022-10-17T06:47:50.962Z,101163.91
2022-10-17T06:48:37.860Z,101163.63
2022-10-17T06:49:25.007Z,101169.41
2022-10-17T06:50:11.834Z,101173.66
2022-10-17T06:51:03.110Z,101166.94
2022-10-17T06:51:49.972Z,101175.44
2022-10-17T06:52:36.901Z,101176.50
2022-10-17T06:53:25.362Z,101175.87
2022-10-17T06:54:12.251Z,101170.94
2022-10-17T06:54:59.075Z,101169.31
2022-10-17T06:55:45.981Z,101173.44
2022-10-17T06:56:32.923Z,101178.75
2022-10-17T06:57:19.841Z,101175.63
2022-10-17T06:58:06.673Z,101180.75
2022-10-17T06:58:54.131Z,101174.84
2022-10-17T06:59:41.028Z,101179.59
2022-10-17T07:00:27.917Z,101177.62
2022-10-17T07:01:14.832Z,101181.06
2022-10-17T07:02:02.335Z,101181.25
2022-10-17T07:02:49.534Z,101177.22
2022-10-17T07:03:36.892Z,101187.56
2022-10-17T07:04:23.782Z,101184.88
2022-10-17T07:05:10.660Z,101185.75
2022-10-17T07:05:58.233Z,101184.59
2022-10-17T07:06:45.568Z,101184.62
2022-10-17T07:07:32.810Z,101193.06
2022-10-17T07:08:19.821Z,101187.84
2022-10-17T07:09:10.054Z,101192.47
2022-10-17T07:09:56.944Z,101181.78
2022-10-17T07:10:43.822Z,101185.53
2022-10-17T07:11:30.804Z,101187.72
2022-10-17T07:12:17.711Z,101193.84
2022-10-17T07:13:04.801Z,101195.38
2022-10-17T07:13:51.689Z,101201.97
2022-10-17T07:14:38.418Z,101203.34
2022-10-17T07:15:25.143Z,101201.97
2022-10-17T07:16:12.559Z,101204.19
2022-10-17T07:16:59.786Z,101197.41
2022-10-17T07:17:50.701Z,101200.78
2022-10-17T07:18:37.642Z,101199.44
2022-10-17T07:19:24.690Z,101200.25
2022-10-17T07:20:11.711Z,101200.56
2022-10-17T07:20:58.660Z,101198.19
2022-10-17T07:21:45.520Z,101200.72
2022-10-17T07:22:32.531Z,101197.81
2022-10-17T07:23:19.520Z,101199.13
2022-10-17T07:24:07.754Z,101204.56
2022-10-17T07:24:54.553Z,101202.13
2022-10-17T07:25:41.510Z,101202.69
2022-10-17T07:26:28.534Z,101206.06
2022-10-17T07:27:15.703Z,101209.25
2022-10-17T07:28:02.941Z,101207.19
2022-10-17T07:28:53.515Z,101201.72
2022-10-17T07:29:40.380Z,101203.56
2022-10-17T07:30:27.301Z,101207.78
2022-10-17T07:31:17.073Z,101200.75
2022-10-17T07:32:06.672Z,101209.25
2022-10-17T07:32:54.571Z,101213.44
2022-10-17T07:33:41.997Z,101209.31
2022-10-17T07:34:31.601Z,101207.75
2022-10-17T07:35:19.195Z,101208.41
2022-10-17T07:36:06.681Z,101207.03
2022-10-17T07:36:54.311Z,101214.28
2022-10-17T07:37:41.923Z,101200.63
2022-10-17T07:38:29.317Z,101212.19
2022-10-17T07:39:16.311Z,101208.41
2022-10-17T07:40:04.173Z,101209.84
2022-10-17T07:40:57.631Z,101213.00
2022-10-17T07:41:44.605Z,101209.06
2022-10-17T07:42:31.610Z,101209.00
2022-10-17T07:43:18.571Z,101211.56
2022-10-17T07:44:05.921Z,101211.03
2022-10-17T07:44:52.745Z,101211.78
2022-10-17T07:45:41.592Z,101206.63
2022-10-17T07:46:28.413Z,101213.47
2022-10-17T07:47:15.364Z,101217.34
2022-10-17T07:48:02.253Z,101211.25
2022-10-17T07:48:49.287Z,101212.38
2022-10-17T07:49:36.270Z,101207.97
2022-10-17T07:50:23.460Z,101205.41
2022-10-17T07:51:10.881Z,101205.06
2022-10-17T07:51:57.741Z,101212.66
2022-10-17T07:52:44.650Z,101211.62
2022-10-17T07:53:31.700Z,101211.62
2022-10-17T07:54:18.694Z,101212.28
2022-10-17T07:55:06.221Z,101212.75
2022-10-17T07:55:53.221Z,101211.16
2022-10-17T07:56:40.143Z,101212.84
2022-10-17T07:57:27.059Z,101210.03
2022-10-17T07:58:14.823Z,101212.56
2022-10-17T07:59:03.952Z,101206.22
2022-10-17T07:59:54.600Z,101217.50
2022-10-17T08:00:41.694Z,101217.31
2022-10-17T08:01:28.731Z,101212.81
2022-10-17T08:02:23.862Z,101217.69
2022-10-17T08:03:11.280Z,101212.78
2022-10-17T08:03:58.150Z,101214.31
2022-10-17T08:04:44.918Z,101216.03
2022-10-17T08:05:32.490Z,101215.84
2022-10-17T08:06:19.400Z,101225.78
2022-10-17T08:07:19.615Z,101215.56
2022-10-17T08:08:08.954Z,101214.03
2022-10-17T08:08:55.990Z,101210.97
2022-10-17T08:09:44.262Z,101214.59
2022-10-17T08:10:31.112Z,101213.81
2022-10-17T08:11:18.190Z,101215.94
2022-10-17T08:12:05.315Z,101219.16
2022-10-17T08:12:52.164Z,101217.06
2022-10-17T08:13:40.551Z,101215.63
2022-10-17T08:14:27.390Z,101218.59
2022-10-17T08:15:14.281Z,101218.84
2022-10-17T08:16:07.562Z,101226.28
2022-10-17T08:16:55.292Z,101221.91
2022-10-17T08:17:42.162Z,101225.53
2022-10-17T08:18:29.474Z,101218.81
2022-10-17T08:19:16.521Z,101223.87
2022-10-17T08:20:05.785Z,101220.34
2022-10-17T08:20:55.638Z,101218.94
2022-10-17T08:21:47.124Z,101222.53
2022-10-17T08:22:33.992Z,101228.00
2022-10-17T08:23:21.200Z,101226.13
2022-10-17T08:24:08.033Z,101223.66
2022-10-17T08:24:55.063Z,101224.28
2022-10-17T08:25:41.962Z,101223.87
2022-10-17T08:26:29.251Z,101225.16
2022-10-17T08:27:21.641Z,101228.16
2022-10-17T08:29:00.455Z,101224.34
2022-10-17T08:29:49.039Z,101225.81
2022-10-17T08:30:36.450Z,101219.75
2022-10-17T08:31:23.534Z,101219.81
2022-10-17T08:32:10.566Z,101220.84
2022-10-17T08:32:57.481Z,101215.19
2022-10-17T08:33:44.491Z,101217.72
2022-10-17T08:34:31.391Z,101225.72
2022-10-17T08:35:18.400Z,101211.22
2022-10-17T08:36:06.481Z,101217.13
2022-10-17T08:36:53.381Z,101211.66
2022-10-17T08:37:40.350Z,101221.34
2022-10-17T08:38:32.003Z,101211.06
2022-10-17T08:39:21.710Z,101215.50
2022-10-17T08:40:34.061Z,101222.69
2022-10-17T08:41:20.890Z,101210.25
2022-10-17T08:42:28.110Z,101215.34
2022-10-17T08:43:39.781Z,101222.50
2022-10-17T08:45:11.558Z,101219.97
2022-10-17T08:46:03.284Z,101218.72
2022-10-17T08:46:52.842Z,101220.00
2022-10-17T08:47:43.022Z,101228.22
2022-10-17T08:48:33.623Z,101221.69
2022-10-17T08:49:26.122Z,101226.31
2022-10-17T08:50:56.792Z,101228.88
2022-10-17T08:51:50.034Z,101222.34
2022-10-17T08:52:43.241Z,101221.09
2022-10-17T08:53:40.204Z,101227.84
2022-10-17T08:54:39.319Z,101229.50
2022-10-17T08:55:33.551Z,101232.25
2022-10-17T08:56:44.028Z,101221.50
2022-10-17T08:57:31.709Z,101222.16
2022-10-17T08:58:28.468Z,101217.06
2022-10-17T08:59:26.843Z,101224.88
2022-10-17T09:00:19.312Z,101221.91
2022-10-17T09:01:14.976Z,101220.88
2022-10-17T09:02:04.022Z,101217.91
2022-10-17T09:03:09.107Z,101227.19
2022-10-17T09:04:05.400Z,101223.59
2022-10-17T09:04:57.640Z,101228.88
2022-10-17T09:05:51.560Z,101227.59
2022-10-17T09:06:41.243Z,101225.06
2022-10-17T09:07:31.502Z,101224.25
2022-10-17T09:08:37.180Z,101227.63
2022-10-17T09:09:51.610Z,101231.44
2022-10-17T09:10:56.061Z,101233.94
2022-10-17T09:11:52.842Z,101225.06
2022-10-17T09:12:44.560Z,101226.97
2022-10-17T09:13:34.400Z,101230.56
2022-10-17T09:14:39.891Z,101225.09
2022-10-17T09:16:03.673Z,101221.09
2022-10-17T09:16:50.535Z,101228.69
2022-10-17T09:17:52.053Z,101222.94
2022-10-17T09:18:46.815Z,101230.56
2022-10-17T09:19:44.550Z,101220.22
2022-10-17T09:20:43.512Z,101229.28
2022-10-17T09:21:38.762Z,101225.69
2022-10-17T09:22:28.981Z,101221.47
2022-10-17T09:23:25.109Z,101223.56
2022-10-17T09:24:19.423Z,101237.06
2022-10-17T09:25:11.653Z,101221.22
2022-10-17T09:26:00.236Z,101228.81
2022-10-17T09:26:47.271Z,101228.19
2022-10-17T09:27:42.231Z,101225.44
2022-10-17T09:28:34.807Z,101224.38
2022-10-17T09:29:29.601Z,101220.34
2022-10-17T09:30:44.232Z,101225.81
2022-10-17T09:31:35.860Z,101226.25
2022-10-17T09:32:25.623Z,101228.97
2022-10-17T09:33:23.264Z,101225.81
2022-10-17T09:34:22.891Z,101224.94
2022-10-17T09:35:14.192Z,101230.22
2022-10-17T09:36:01.500Z,101225.34
2022-10-17T09:36:48.472Z,101220.50